createdAt,value
2018-07-31T00:01:54.481Z,27.50
2018-07-31T00:04:21.675Z,27.40
2018-07-31T00:06:48.865Z,27.40
2018-07-31T00:11:43.305Z,27.40
2018-07-31T00:14:10.450Z,27.30
2018-07-31T00:16:37.609Z,27.30
2018-07-31T00:21:32.256Z,27.40
2018-07-31T00:23:59.454Z,27.30
2018-07-31T00:26:26.811Z,27.10
2018-07-31T00:28:53.937Z,27.00
2018-07-31T00:31:21.127Z,26.90
2018-07-31T00:33:48.319Z,27.00
2018-07-31T00:36:15.515Z,27.10
2018-07-31T00:38:42.668Z,27.20
2018-07-31T00:43:37.035Z,27.30
2018-07-31T00:46:04.262Z,27.20
2018-07-31T00:48:31.385Z,27.10
2018-07-31T00:50:58.607Z,27.00
2018-07-31T00:53:25.798Z,26.80
2018-07-31T00:55:52.934Z,26.60
2018-07-31T00:58:20.229Z,26.50
2018-07-31T01:00:47.388Z,26.40
2018-07-31T01:03:14.606Z,26.40
2018-07-31T01:05:41.900Z,26.40
2018-07-31T01:08:09.109Z,26.40
2018-07-31T01:10:36.232Z,26.40
2018-07-31T01:13:03.432Z,26.30
2018-07-31T01:15:30.621Z,26.30
2018-07-31T01:17:57.742Z,26.30
2018-07-31T01:20:24.917Z,26.30
2018-07-31T01:22:52.101Z,26.10
2018-07-31T01:25:19.190Z,26.00
2018-07-31T01:27:46.304Z,26.00
2018-07-31T01:30:13.430Z,26.10
2018-07-31T01:32:41.100Z,26.10
2018-07-31T01:35:08.365Z,26.20
2018-07-31T01:37:35.550Z,26.20
2018-07-31T01:40:02.721Z,26.20
2018-07-31T01:42:29.928Z,26.20
2018-07-31T01:44:57.172Z,26.10
2018-07-31T01:47:24.293Z,26.00
2018-07-31T01:49:51.450Z,25.90
2018-07-31T01:52:18.560Z,25.70
2018-07-31T01:57:13.787Z,25.80
2018-07-31T01:59:40.967Z,25.80
2018-07-31T02:02:08.227Z,25.80
2018-07-31T02:04:35.519Z,25.70
2018-07-31T02:07:02.663Z,25.70
2018-07-31T02:09:29.908Z,25.70
2018-07-31T02:11:57.118Z,25.70
2018-07-31T02:14:24.266Z,25.60
2018-07-31T02:16:51.432Z,25.60
2018-07-31T02:19:18.670Z,25.60
2018-07-31T02:21:45.883Z,25.60
2018-07-31T02:24:13.145Z,25.50
2018-07-31T02:26:40.414Z,25.50
2018-07-31T02:29:07.674Z,25.60
2018-07-31T02:31:34.876Z,25.50
2018-07-31T02:34:02.097Z,25.50
2018-07-31T02:36:29.301Z,25.40
2018-07-31T02:38:56.427Z,25.20
2018-07-31T02:41:23.608Z,25.30
2018-07-31T02:43:50.833Z,25.40
2018-07-31T02:46:17.955Z,25.50
2018-07-31T02:48:45.774Z,25.30
2018-07-31T02:51:13.059Z,25.30
2018-07-31T02:53:40.259Z,25.40
2018-07-31T02:56:07.408Z,25.30
2018-07-31T02:58:34.605Z,25.20
2018-07-31T03:01:01.787Z,25.20
2018-07-31T03:05:56.123Z,25.20
2018-07-31T03:08:23.458Z,25.20
2018-07-31T03:10:50.659Z,25.20
2018-07-31T03:13:17.959Z,25.20
2018-07-31T03:15:45.314Z,25.20
2018-07-31T03:18:12.445Z,25.00
2018-07-31T03:23:06.966Z,24.80
2018-07-31T03:25:34.100Z,24.70
2018-07-31T03:28:01.256Z,24.80
2018-07-31T03:30:28.468Z,25.00
2018-07-31T03:32:55.648Z,25.10
2018-07-31T03:35:22.840Z,25.20
2018-07-31T03:37:50.076Z,25.20
2018-07-31T03:42:45.464Z,24.90
2018-07-31T03:45:12.691Z,24.80
2018-07-31T03:47:39.819Z,24.80
2018-07-31T03:50:07.045Z,24.80
2018-07-31T03:52:34.122Z,24.80
2018-07-31T03:55:01.247Z,24.80
2018-07-31T03:57:28.381Z,24.80
2018-07-31T03:59:55.545Z,24.80
2018-07-31T04:02:22.785Z,24.70
2018-07-31T04:04:49.981Z,24.80
2018-07-31T04:07:17.138Z,24.50
2018-07-31T04:28:54.028Z,24.20
2018-07-31T04:31:21.316Z,24.10
2018-07-31T04:33:48.595Z,24.00
2018-07-31T04:36:15.860Z,23.90
2018-07-31T04:38:42.888Z,23.90
2018-07-31T04:41:10.534Z,23.90
2018-07-31T04:43:37.721Z,23.90
2018-07-31T04:46:04.944Z,23.90
2018-07-31T04:50:59.397Z,24.10
2018-07-31T04:53:26.690Z,24.20
2018-07-31T04:55:54.119Z,24.30
2018-07-31T04:58:21.312Z,24.40
2018-07-31T05:00:48.520Z,24.40
2018-07-31T05:03:15.695Z,24.30
2018-07-31T05:05:42.924Z,24.30
2018-07-31T05:08:10.110Z,24.40
2018-07-31T05:10:37.364Z,24.40
2018-07-31T05:17:58.978Z,24.40
2018-07-31T05:20:26.312Z,24.50
2018-07-31T05:22:54.229Z,24.40
2018-07-31T05:25:22.363Z,24.50
2018-07-31T05:27:49.649Z,24.50
2018-07-31T05:30:17.247Z,24.60
2018-07-31T05:32:44.591Z,24.60
2018-07-31T05:37:39.324Z,24.60
2018-07-31T05:40:08.837Z,24.60
2018-07-31T05:42:36.180Z,24.60
2018-07-31T05:45:03.612Z,24.60
2018-07-31T05:47:31.395Z,24.60
2018-07-31T05:49:59.166Z,24.60
2018-07-31T05:52:26.523Z,24.70
2018-07-31T05:54:54.850Z,24.80
2018-07-31T05:57:22.117Z,24.80
2018-07-31T05:59:49.292Z,24.90
2018-07-31T06:02:16.658Z,25.10
2018-07-31T06:04:43.911Z,25.20
2018-07-31T06:07:11.249Z,25.30
2018-07-31T06:09:39.179Z,25.30
2018-07-31T06:12:06.636Z,25.30
2018-07-31T06:14:34.258Z,25.40
2018-07-31T06:17:01.566Z,25.60
2018-07-31T06:19:28.944Z,25.70
2018-07-31T06:21:56.156Z,25.70
2018-07-31T06:24:23.337Z,25.70
2018-07-31T06:26:50.612Z,25.80
2018-07-31T06:29:19.011Z,25.90
2018-07-31T06:31:46.420Z,26.10
2018-07-31T06:34:13.785Z,26.10
2018-07-31T06:36:41.053Z,26.10
2018-07-31T06:39:09.023Z,26.20
2018-07-31T06:41:37.607Z,26.30
2018-07-31T06:44:05.096Z,26.40
2018-07-31T06:46:32.364Z,26.40
2018-07-31T06:48:59.744Z,26.40
2018-07-31T06:56:21.566Z,26.60
2018-07-31T06:58:49.438Z,26.80
2018-07-31T07:01:16.890Z,26.90
2018-07-31T07:03:44.138Z,26.90
2018-07-31T07:06:11.489Z,27.00
2018-07-31T07:08:38.866Z,27.20
2018-07-31T07:11:08.933Z,27.20
2018-07-31T07:13:36.344Z,27.30
2018-07-31T07:16:03.728Z,27.30
2018-07-31T07:18:31.056Z,27.40
2018-07-31T07:20:59.643Z,27.30
2018-07-31T07:23:26.985Z,27.40
2018-07-31T07:25:54.306Z,27.50
2018-07-31T07:28:21.608Z,27.50
2018-07-31T07:30:48.770Z,27.60
2018-07-31T07:33:15.993Z,27.60
2018-07-31T07:35:43.170Z,27.70
2018-07-31T07:38:10.379Z,27.70
2018-07-31T07:40:38.802Z,27.80
2018-07-31T07:43:06.854Z,27.90
2018-07-31T07:45:34.046Z,27.90
2018-07-31T07:48:01.318Z,28.00
2018-07-31T07:52:56.016Z,28.10
2018-07-31T07:55:23.260Z,28.20
2018-07-31T07:57:50.846Z,28.20
2018-07-31T08:00:17.977Z,28.30
2018-07-31T08:02:45.239Z,28.50
2018-07-31T08:05:12.413Z,28.50
2018-07-31T08:07:39.712Z,28.70
2018-07-31T08:10:07.071Z,28.70
2018-07-31T08:12:34.302Z,28.70
2018-07-31T08:15:01.691Z,28.70
2018-07-31T08:17:29.141Z,28.80
2018-07-31T08:19:56.391Z,29.00
2018-07-31T08:22:23.555Z,29.10
2018-07-31T08:24:50.864Z,29.20
2018-07-31T08:27:18.294Z,29.30
2018-07-31T08:29:45.793Z,29.40
2018-07-31T08:32:14.157Z,29.50
2018-07-31T08:34:41.470Z,29.50
2018-07-31T08:37:08.731Z,29.50
2018-07-31T08:39:36.071Z,29.50
2018-07-31T08:42:03.616Z,29.60
2018-07-31T08:44:31.067Z,29.80
2018-07-31T08:46:58.525Z,29.80
2018-07-31T08:49:25.749Z,29.80
2018-07-31T08:51:53.108Z,29.80
2018-07-31T08:54:21.172Z,29.90
2018-07-31T08:56:49.263Z,30.10
2018-07-31T09:01:45.360Z,30.50
2018-07-31T09:04:13.332Z,30.50
2018-07-31T09:06:40.497Z,30.50
2018-07-31T09:09:09.220Z,30.60
2018-07-31T09:11:36.616Z,30.60
2018-07-31T09:14:05.365Z,30.70
2018-07-31T09:16:33.628Z,30.60
2018-07-31T09:19:00.888Z,30.60
2018-07-31T09:21:28.371Z,30.70
2018-07-31T09:23:55.561Z,30.70
2018-07-31T09:26:23.552Z,30.80
2018-07-31T09:28:50.972Z,30.90
2018-07-31T09:31:18.251Z,31.10
2018-07-31T09:33:45.492Z,31.10
2018-07-31T09:36:13.195Z,31.20
2018-07-31T09:38:41.193Z,31.10
2018-07-31T09:41:09.155Z,31.20
2018-07-31T09:46:04.332Z,31.40
2018-07-31T09:48:31.641Z,31.50
2018-07-31T09:50:58.837Z,31.60
2018-07-31T09:53:26.043Z,31.70
2018-07-31T10:00:53.449Z,31.90
2018-07-31T10:03:20.629Z,32.10
2018-07-31T10:05:49.349Z,32.20
2018-07-31T10:08:22.434Z,32.30
2018-07-31T10:10:51.042Z,32.40
2018-07-31T10:13:18.273Z,32.50
2018-07-31T10:15:45.493Z,32.50
2018-07-31T10:18:12.825Z,32.60
2018-07-31T10:20:40.121Z,32.60
2018-07-31T10:23:07.383Z,32.70
2018-07-31T10:25:34.562Z,32.80
2018-07-31T10:28:01.894Z,32.90
2018-07-31T10:30:29.722Z,32.90
2018-07-31T10:32:56.918Z,33.00
2018-07-31T10:35:24.206Z,33.00
2018-07-31T10:37:52.468Z,33.10
2018-07-31T10:40:20.192Z,33.10
2018-07-31T10:42:47.667Z,33.30
2018-07-31T10:45:14.990Z,33.30
2018-07-31T10:50:09.487Z,33.30
2018-07-31T10:55:09.476Z,33.30
2018-07-31T10:57:36.999Z,33.30
2018-07-31T11:00:06.442Z,33.40
2018-07-31T11:02:33.848Z,33.60
2018-07-31T11:05:03.017Z,33.90
2018-07-31T11:07:30.320Z,34.20
2018-07-31T11:09:57.790Z,34.40
2018-07-31T11:12:25.152Z,34.60
2018-07-31T11:14:52.412Z,34.70
2018-07-31T11:17:19.829Z,34.70
2018-07-31T11:22:16.053Z,34.50
2018-07-31T11:27:11.482Z,34.50
2018-07-31T11:29:38.880Z,34.70
2018-07-31T11:32:06.262Z,34.50
2018-07-31T11:34:33.542Z,34.30
2018-07-31T11:37:00.897Z,34.00
2018-07-31T11:39:28.109Z,34.20
2018-07-31T11:44:22.691Z,34.30
2018-07-31T11:46:49.947Z,34.40
2018-07-31T11:51:45.489Z,34.30
2018-07-31T11:56:40.702Z,34.30
2018-07-31T11:59:08.596Z,34.20
2018-07-31T12:04:09.998Z,34.50
2018-07-31T12:06:38.132Z,34.70
2018-07-31T12:09:08.390Z,35.00
2018-07-31T12:11:36.427Z,35.20
2018-07-31T12:14:03.764Z,35.40
2018-07-31T12:16:31.092Z,35.30
2018-07-31T12:18:58.370Z,35.00
2018-07-31T12:21:25.849Z,34.80
2018-07-31T12:26:20.915Z,34.40
2018-07-31T12:28:48.708Z,34.40
2018-07-31T12:31:16.094Z,34.30
2018-07-31T12:41:06.648Z,34.20
2018-07-31T12:46:02.351Z,34.20
2018-07-31T12:48:29.648Z,34.30
2018-07-31T12:53:24.581Z,34.40
2018-07-31T12:55:53.300Z,34.60
2018-07-31T12:58:20.684Z,35.10
2018-07-31T13:00:48.035Z,35.30
2018-07-31T13:03:15.229Z,35.30
2018-07-31T13:08:10.232Z,35.80
2018-07-31T13:10:37.453Z,35.70
2018-07-31T13:13:05.708Z,35.50
2018-07-31T13:15:33.340Z,35.70
2018-07-31T13:18:00.684Z,35.80
2018-07-31T13:22:55.341Z,36.00
2018-07-31T13:25:22.610Z,36.00
2018-07-31T13:27:50.819Z,36.00
2018-07-31T13:30:18.057Z,35.70
2018-07-31T13:32:45.488Z,35.60
2018-07-31T13:35:13.041Z,35.50
2018-07-31T13:37:40.840Z,35.90
2018-07-31T13:40:08.760Z,36.40
2018-07-31T13:45:03.852Z,36.20
2018-07-31T13:47:31.249Z,36.40
2018-07-31T13:49:58.566Z,36.30
2018-07-31T13:52:26.198Z,36.00
2018-07-31T13:54:53.564Z,35.80
2018-07-31T13:57:21.049Z,36.10
2018-07-31T13:59:48.311Z,36.10
2018-07-31T14:02:15.620Z,36.30
2018-07-31T14:04:42.988Z,36.30
2018-07-31T14:07:10.412Z,36.50
2018-07-31T14:09:37.648Z,36.30
2018-07-31T14:14:33.768Z,35.90
2018-07-31T14:17:01.148Z,35.80
2018-07-31T14:19:28.993Z,35.60
2018-07-31T14:21:56.167Z,35.60
2018-07-31T14:24:23.771Z,35.40
2018-07-31T14:26:51.370Z,35.60
2018-07-31T14:29:18.933Z,35.80
2018-07-31T14:34:15.276Z,35.80
2018-07-31T14:36:42.650Z,35.60
2018-07-31T14:39:10.606Z,35.60
2018-07-31T14:41:37.890Z,36.10
2018-07-31T14:44:05.786Z,36.70
2018-07-31T14:46:33.120Z,37.00
2018-07-31T14:49:00.493Z,37.30
2018-07-31T14:51:28.724Z,37.60
2018-07-31T14:53:56.173Z,37.90
2018-07-31T14:56:23.467Z,37.80
2018-07-31T14:58:50.928Z,37.20
2018-07-31T15:03:45.980Z,36.50
2018-07-31T15:06:13.663Z,36.50
2018-07-31T15:08:40.917Z,36.80
2018-07-31T15:11:09.552Z,36.70
2018-07-31T15:13:36.801Z,36.60
2018-07-31T15:18:31.334Z,36.60
2018-07-31T15:20:58.870Z,36.70
2018-07-31T15:25:53.427Z,37.10
2018-07-31T15:28:21.396Z,37.30
2018-07-31T15:30:48.746Z,37.50
2018-07-31T15:33:16.102Z,37.60
2018-07-31T15:35:43.466Z,37.70
2018-07-31T15:38:11.354Z,37.80
2018-07-31T15:40:38.588Z,37.60
2018-07-31T15:43:05.927Z,37.80
2018-07-31T15:45:33.527Z,38.10
2018-07-31T15:48:00.824Z,38.40
2018-07-31T15:50:28.469Z,38.80
2018-07-31T15:52:56.254Z,39.00
2018-07-31T15:55:23.577Z,38.50
2018-07-31T15:57:51.137Z,37.80
2018-07-31T16:00:18.412Z,37.00
2018-07-31T16:05:12.879Z,36.10
2018-07-31T16:07:42.422Z,35.80
2018-07-31T16:10:09.666Z,35.60
2018-07-31T16:12:37.199Z,35.60
2018-07-31T16:15:04.604Z,35.50
2018-07-31T16:19:59.096Z,35.20
2018-07-31T16:22:26.762Z,34.70
2018-07-31T16:24:54.059Z,34.20
2018-07-31T16:27:21.417Z,33.50
2018-07-31T16:29:49.068Z,33.10
2018-07-31T16:34:44.316Z,32.50
2018-07-31T16:37:11.552Z,32.90
2018-07-31T16:39:39.368Z,33.40
2018-07-31T16:42:06.618Z,33.70
2018-07-31T16:44:34.504Z,33.80
2018-07-31T16:47:01.815Z,34.20
2018-07-31T16:49:29.034Z,34.50
2018-07-31T16:51:56.387Z,34.90
2018-07-31T16:54:24.480Z,35.50
2018-07-31T16:56:52.486Z,35.70
2018-07-31T16:59:20.579Z,35.80
2018-07-31T17:01:47.856Z,35.90
2018-07-31T17:04:15.137Z,36.30
2018-07-31T17:06:42.334Z,36.70
2018-07-31T17:09:09.567Z,37.00
2018-07-31T17:11:36.784Z,37.00
2018-07-31T17:14:04.136Z,36.70
2018-07-31T17:16:31.812Z,36.50
2018-07-31T17:21:26.887Z,36.50
2018-07-31T17:23:54.763Z,36.60
2018-07-31T17:26:21.938Z,36.50
2018-07-31T17:28:49.225Z,36.60
2018-07-31T17:31:16.588Z,36.70
2018-07-31T17:33:43.766Z,36.70
2018-07-31T17:36:12.706Z,36.80
2018-07-31T17:43:36.239Z,36.50
2018-07-31T17:46:04.312Z,36.50
2018-07-31T17:48:31.628Z,36.50
2018-07-31T17:50:58.955Z,36.50
2018-07-31T17:53:26.162Z,36.40
2018-07-31T17:55:53.371Z,36.30
2018-07-31T17:58:20.662Z,36.20
2018-07-31T18:00:48.040Z,36.00
2018-07-31T18:03:15.353Z,36.00
2018-07-31T18:05:42.623Z,35.90
2018-07-31T18:08:09.819Z,35.60
2018-07-31T18:10:37.285Z,35.40
2018-07-31T18:13:04.967Z,35.30
2018-07-31T18:15:33.430Z,35.20
2018-07-31T18:18:01.023Z,35.10
2018-07-31T18:20:28.268Z,35.20
2018-07-31T18:22:55.632Z,35.40
2018-07-31T18:25:23.697Z,35.60
2018-07-31T18:27:50.831Z,35.80
2018-07-31T18:30:18.088Z,36.10
2018-07-31T18:32:46.173Z,36.30
2018-07-31T18:35:13.469Z,36.10
2018-07-31T18:40:08.356Z,35.10
2018-07-31T18:42:36.597Z,34.60
2018-07-31T18:45:04.215Z,34.10
2018-07-31T18:49:58.786Z,33.40
2018-07-31T18:52:26.232Z,33.40
2018-07-31T18:54:53.587Z,33.20
2018-07-31T18:57:21.636Z,33.20
2018-07-31T18:59:48.885Z,33.00
2018-07-31T19:04:43.889Z,32.70
2018-07-31T19:07:11.079Z,32.60
2018-07-31T19:09:38.249Z,32.50
2018-07-31T19:12:05.838Z,32.40
2018-07-31T19:14:33.011Z,32.20
2018-07-31T19:17:00.492Z,32.00
2018-07-31T19:19:28.342Z,31.80
2018-07-31T19:21:55.591Z,31.50
2018-07-31T19:24:22.835Z,31.40
2018-07-31T19:26:50.805Z,31.30
2018-07-31T19:29:18.032Z,31.30
2018-07-31T19:31:46.521Z,31.20
2018-07-31T19:34:14.524Z,31.20
2018-07-31T19:36:41.889Z,31.10
2018-07-31T19:39:09.373Z,31.00
2018-07-31T19:41:36.658Z,30.90
2018-07-31T19:44:04.181Z,30.90
2018-07-31T19:46:31.370Z,30.80
2018-07-31T19:48:58.830Z,30.80
2018-07-31T19:51:26.046Z,30.70
2018-07-31T20:10:36.900Z,29.90
2018-07-31T20:13:04.325Z,30.00
2018-07-31T20:15:32.561Z,30.00
2018-07-31T20:20:27.025Z,29.90
2018-07-31T20:22:54.199Z,29.90
2018-07-31T20:25:21.585Z,30.00
2018-07-31T20:27:48.812Z,30.00
2018-07-31T20:30:16.080Z,30.00
2018-07-31T20:32:43.308Z,30.10
2018-07-31T20:35:10.482Z,30.10
2018-07-31T20:37:37.696Z,30.10
2018-07-31T20:40:04.836Z,30.00
2018-07-31T20:42:32.537Z,30.00
2018-07-31T20:44:59.757Z,30.00
2018-07-31T20:47:26.922Z,29.90
2018-07-31T20:49:54.056Z,29.90
2018-07-31T20:52:21.260Z,29.90
2018-07-31T20:54:48.453Z,29.90
2018-07-31T20:57:15.673Z,29.90
2018-07-31T20:59:42.819Z,29.70
2018-07-31T21:02:09.991Z,29.80
2018-07-31T21:04:37.164Z,29.70
2018-07-31T21:07:04.521Z,29.70
2018-07-31T21:09:31.683Z,29.60
2018-07-31T21:11:58.920Z,29.60
2018-07-31T21:14:26.395Z,29.50
2018-07-31T21:16:53.792Z,29.50
2018-07-31T21:19:20.940Z,29.50
2018-07-31T21:21:48.240Z,29.50
2018-07-31T21:24:15.496Z,29.50
2018-07-31T21:26:43.048Z,29.50
2018-07-31T21:31:37.565Z,29.40
2018-07-31T21:34:05.009Z,29.40
2018-07-31T21:36:32.191Z,29.50
2018-07-31T21:38:59.290Z,29.50
2018-07-31T21:41:26.613Z,29.50
2018-07-31T21:43:53.792Z,29.40
2018-07-31T21:46:20.961Z,29.40
2018-07-31T21:48:48.091Z,29.40
2018-07-31T21:51:15.368Z,29.50
2018-07-31T21:53:42.905Z,29.40
2018-07-31T21:56:10.058Z,29.30
2018-07-31T21:58:37.231Z,29.20
2018-07-31T22:01:07.314Z,29.20
2018-07-31T22:03:34.925Z,29.30
2018-07-31T22:06:02.333Z,29.20
2018-07-31T22:08:29.609Z,29.10
2018-07-31T22:10:56.875Z,29.10
2018-07-31T22:13:24.067Z,29.00
2018-07-31T22:15:51.332Z,29.00
2018-07-31T22:18:18.603Z,28.90
2018-07-31T22:20:45.818Z,28.90
2018-07-31T22:23:13.043Z,28.90
2018-07-31T22:25:40.219Z,28.90
2018-07-31T22:28:07.400Z,28.80
2018-07-31T22:30:34.624Z,28.80
2018-07-31T22:33:01.800Z,28.80
2018-07-31T22:35:29.271Z,28.80
2018-07-31T22:37:56.536Z,28.90
2018-07-31T22:40:23.735Z,28.80
2018-07-31T22:42:50.948Z,28.70
2018-07-31T22:45:18.083Z,28.70
2018-07-31T22:47:45.404Z,28.60
2018-07-31T22:50:13.109Z,28.50
2018-07-31T22:52:40.279Z,28.40
2018-07-31T22:55:07.401Z,28.50
2018-07-31T22:57:34.593Z,28.50
2018-07-31T23:00:01.779Z,28.60
2018-07-31T23:02:28.898Z,28.60
2018-07-31T23:04:56.167Z,28.50
2018-07-31T23:10:01.078Z,28.50
2018-07-31T23:12:28.283Z,28.40
2018-07-31T23:14:55.437Z,28.40
2018-07-31T23:17:22.583Z,28.30
2018-07-31T23:19:49.722Z,28.30
2018-07-31T23:22:28.396Z,28.30
2018-07-31T23:24:55.494Z,28.20
2018-07-31T23:27:22.621Z,28.20
2018-07-31T23:29:49.699Z,28.20
2018-07-31T23:32:16.849Z,28.20
2018-07-31T23:34:44.079Z,28.10
2018-07-31T23:37:11.225Z,28.10
2018-07-31T23:39:38.376Z,28.10
2018-07-31T23:42:05.478Z,28.00
2018-07-31T23:44:32.589Z,28.00
2018-07-31T23:46:59.832Z,28.10
2018-07-31T23:49:26.923Z,28.00
2018-07-31T23:51:53.992Z,28.00
2018-07-31T23:54:21.181Z,28.10
2018-07-31T23:56:48.289Z,28.10
2018-07-31T23:59:15.607Z,28.00
